Time;durP1;ratioP1;P1;durP2;ratioP2;P2;SDS_P1;SDS_P2;PMS_P1;PMS_P2;Temp;Humidity;BMP_temperature;BMP_pressure;BME280_temperature;BME280_humidity;BME280_pressure;Samples;Min_cycle;Max_cycle;Signal;HPM_P1;HPM_P2
2022/08/10 00:01:18;;;;;;;;;;;;;;;;;;2217538;58;1695;-54
2022/08/10 00:03:51;;;;;;;;;;;;;;;;;;2217919;58;1277;-55
2022/08/10 00:06:27;;;;;;;;;;;;;;;;;;2217761;58;1385;-55
2022/08/10 00:09:00;;;;;;;;;;;;;;;;;;2218592;66;1219;-54
2022/08/10 00:11:33;;;;;;;;;;;;;;;;;;2218654;58;1234;-54
2022/08/10 00:14:07;;;;;;;;;;;;;;;;;;2218474;66;1978;-54
2022/08/10 00:16:40;;;;;;;;;;;;;;;;;;2218664;58;1368;-54
2022/08/10 00:19:13;;;;;;;;;;;;;;;;;;2218817;58;1231;-54
2022/08/10 00:21:49;;;;;;;;;;;;;;;;;;2218182;60;1145;-54
2022/08/10 00:24:23;;;;;;;;;;;;;;;;;;2219575;66;1326;-55
2022/08/10 00:26:56;;;;;;;;;;;;;;;;;;2218241;66;1282;-55
2022/08/10 00:29:29;;;;;;;;;;;;;;;;;;2218837;66;1264;-54
2022/08/10 00:32:02;;;;;;;;;;;;;;;;;;2218774;66;1260;-55
2022/08/10 00:34:36;;;;;;;;;;;;;;;;;;2218851;66;1919;-54
2022/08/10 00:37:12;;;;;;;;;;;;;;;;;;2218767;58;1342;-54
2022/08/10 00:39:45;;;;;;;;;;;;;;;;;;2218128;66;1228;-54
2022/08/10 00:42:18;;;;;;;;;;;;;;;;;;2218781;66;1763;-54
2022/08/10 00:44:52;;;;;;;;;;;;;;;;;;2218193;66;1248;-54
2022/08/10 00:47:25;;;;;;;;;;;;;;;;;;2218123;66;1131;-54
2022/08/10 00:49:59;;;;;;;;;;;;;;;;;;2218259;66;1206;-54
2022/08/10 00:52:36;;;;;;;;;;;;;;;;;;2218822;66;1152;-54
2022/08/10 00:55:09;;;;;;;;;;;;;;;;;;2218497;66;1923;-54
2022/08/10 00:57:43;;;;;;;;;;;;;;;;;;2218588;66;1092;-54
2022/08/10 01:00:16;;;;;;;;;;;;;;;;;;2218730;66;1255;-54
2022/08/10 01:02:50;;;;;;;;;;;;;;;;;;2218236;58;1775;-53
2022/08/10 01:05:23;;;;;;;;;;;;;;;;;;2219067;58;1317;-54
2022/08/10 01:08:11;;;;;;;;;;;;;;;;;;2218119;66;1283;-54
2022/08/10 01:11:04;;;;;;;;;;;;;;;;;;2218714;58;1232;-54
2022/08/10 01:13:39;;;;;;;;;;;;;;;;;;2218346;66;1196;-54
2022/08/10 01:16:16;;;;;;;;;;;;;;;;;;2218759;58;1945;-54
2022/08/10 01:18:54;;;;;;;;;;;;;;;;;;2218094;58;1172;-58
2022/08/10 01:21:36;;;;;;;;;;;;;;;;;;2218508;66;1265;-54
2022/08/10 01:24:40;;;;;;;;;;;;;;;;;;2218331;66;1136;-54
2022/08/10 01:27:23;;;;;;;;;;;;;;;;;;2218502;66;1565;-55
2022/08/10 01:30:06;;;;;;;;;;;;;;;;;;2218524;66;1216;-54
2022/08/10 01:32:43;;;;;;;;;;;;;;;;;;2218683;66;1183;-53
2022/08/10 01:35:20;;;;;;;;;;;;;;;;;;2218220;66;1927;-53
2022/08/10 01:38:08;;;;;;;;;;;;;;;;;;2217905;58;2310;-55
2022/08/10 01:40:43;;;;;;;;;;;;;;;;;;2218452;66;1148;-54
2022/08/10 01:43:18;;;;;;;;;;;;;;;;;;2218186;66;1280;-53
2022/08/10 01:45:54;;;;;;;;;;;;;;;;;;2217642;66;1636;-53
2022/08/10 01:48:30;;;;;;;;;;;;;;;;;;2217944;66;1266;-54
2022/08/10 01:51:10;;;;;;;;;;;;;;;;;;2218020;66;1219;-53
2022/08/10 01:53:50;;;;;;;;;;;;;;;;;;2217665;66;1066;-53
2022/08/10 01:56:25;;;;;;;;;;;;;;;;;;2218295;66;1944;-54
2022/08/10 01:59:00;;;;;;;;;;;;;;;;;;2217881;66;1265;-53
2022/08/10 02:01:41;;;;;;;;;;;;;;;;;;2217313;58;1632;-53
2022/08/10 02:04:14;;;;;;;;;;;;;;;;;;2218285;58;1702;-54
2022/08/10 02:06:50;;;;;;;;;;;;;;;;;;2217596;66;1194;-54
2022/08/10 02:09:25;;;;;;;;;;;;;;;;;;2217411;66;1219;-54
2022/08/10 02:12:00;;;;;;;;;;;;;;;;;;2218363;58;1210;-54
2022/08/10 02:14:35;;;;;;;;;;;;;;;;;;2218153;66;1932;-54
2022/08/10 02:17:13;;;;;;;;;;;;;;;;;;2217871;58;1298;-53
2022/08/10 02:19:48;;;;;;;;;;;;;;;;;;2217840;58;1229;-54
2022/08/10 02:22:22;;;;;;;;;;;;;;;;;;2217776;66;1199;-54
2022/08/10 02:24:56;;;;;;;;;;;;;;;;;;2217943;66;1258;-54
2022/08/10 02:27:30;;;;;;;;;;;;;;;;;;2218519;66;1086;-54
2022/08/10 02:30:05;;;;;;;;;;;;;;;;;;2217805;66;1227;-58
2022/08/10 02:32:42;;;;;;;;;;;;;;;;;;2218215;66;1048;-53
2022/08/10 02:35:16;;;;;;;;;;;;;;;;;;2217861;66;1980;-59
2022/08/10 02:37:51;;;;;;;;;;;;;;;;;;2218179;58;1308;-54
2022/08/10 02:40:24;;;;;;;;;;;;;;;;;;2218452;66;1147;-53
2022/08/10 02:43:01;;;;;;;;;;;;;;;;;;2217792;66;1215;-54
2022/08/10 02:45:38;;;;;;;;;;;;;;;;;;2217888;66;1134;-54
2022/08/10 02:48:18;;;;;;;;;;;;;;;;;;2217352;66;1254;-57
2022/08/10 02:50:57;;;;;;;;;;;;;;;;;;2217977;66;1109;-56
2022/08/10 02:53:33;;;;;;;;;;;;;;;;;;2217660;66;1198;-54
2022/08/10 02:56:08;;;;;;;;;;;;;;;;;;2218370;66;1926;-54
2022/08/10 02:58:44;;;;;;;;;;;;;;;;;;2218416;66;1308;-55
2022/08/10 03:01:19;;;;;;;;;;;;;;;;;;2218205;58;1641;-54
2022/08/10 03:04:00;;;;;;;;;;;;;;;;;;2217810;58;2383;-54
2022/08/10 03:06:36;;;;;;;;;;;;;;;;;;2217246;66;1203;-56
2022/08/10 03:09:11;;;;;;;;;;;;;;;;;;2218321;66;1273;-53
2022/08/10 03:11:45;;;;;;;;;;;;;;;;;;2218034;58;1234;-54
2022/08/10 03:14:20;;;;;;;;;;;;;;;;;;2218631;66;1078;-53
2022/08/10 03:16:55;;;;;;;;;;;;;;;;;;2217922;58;1933;-53
2022/08/10 03:19:31;;;;;;;;;;;;;;;;;;2217700;59;1245;-54
2022/08/10 03:22:05;;;;;;;;;;;;;;;;;;2216947;66;2206;-54
2022/08/10 03:24:39;;;;;;;;;;;;;;;;;;2218003;66;1150;-54
2022/08/10 03:27:14;;;;;;;;;;;;;;;;;;2218270;66;1161;-55
2022/08/10 03:29:48;;;;;;;;;;;;;;;;;;2217004;66;1272;-53
2022/08/10 03:32:22;;;;;;;;;;;;;;;;;;2218032;66;1117;-53
2022/08/10 03:35:00;;;;;;;;;;;;;;;;;;2217565;58;1320;-57
2022/08/10 03:37:33;;;;;;;;;;;;;;;;;;2218758;58;1417;-54
2022/08/10 03:40:08;;;;;;;;;;;;;;;;;;2218099;66;1272;-54
2022/08/10 03:42:42;;;;;;;;;;;;;;;;;;2217847;66;1828;-53
2022/08/10 03:45:16;;;;;;;;;;;;;;;;;;2217869;66;1530;-55
2022/08/10 03:47:50;;;;;;;;;;;;;;;;;;2217395;66;1198;-54
2022/08/10 03:50:28;;;;;;;;;;;;;;;;;;2218424;66;1184;-54
2022/08/10 03:53:02;;;;;;;;;;;;;;;;;;2218503;60;1570;-53
2022/08/10 03:55:35;;;;;;;;;;;;;;;;;;2218550;66;1908;-54
2022/08/10 03:58:09;;;;;;;;;;;;;;;;;;2218766;66;1262;-54
2022/08/10 04:00:43;;;;;;;;;;;;;;;;;;2218145;66;1113;-57
2022/08/10 04:03:17;;;;;;;;;;;;;;;;;;2217526;58;1688;-54
2022/08/10 04:05:53;;;;;;;;;;;;;;;;;;2219657;59;1339;-53
2022/08/10 04:08:26;;;;;;;;;;;;;;;;;;2219417;66;1360;-53
2022/08/10 04:10:59;;;;;;;;;;;;;;;;;;2219119;58;1243;-54
2022/08/10 04:13:33;;;;;;;;;;;;;;;;;;2218393;66;1334;-54
2022/08/10 04:16:06;;;;;;;;;;;;;;;;;;2219272;58;1986;-53
2022/08/10 04:18:40;;;;;;;;;;;;;;;;;;2219307;59;1219;-53
2022/08/10 04:21:17;;;;;;;;;;;;;;;;;;2218583;66;1237;-54
2022/08/10 04:23:52;;;;;;;;;;;;;;;;;;2219396;66;1265;-54
2022/08/10 04:26:26;;;;;;;;;;;;;;;;;;2219471;66;1208;-54
2022/08/10 04:28:59;;;;;;;;;;;;;;;;;;2218256;66;1260;-53
2022/08/10 04:31:33;;;;;;;;;;;;;;;;;;2218384;66;1100;-53
2022/08/10 04:34:07;;;;;;;;;;;;;;;;;;2218846;66;1174;-53
2022/08/10 04:36:44;;;;;;;;;;;;;;;;;;2218614;58;1945;-53
2022/08/10 04:39:17;;;;;;;;;;;;;;;;;;2219271;66;1297;-54
2022/08/10 04:41:50;;;;;;;;;;;;;;;;;;2219797;66;1182;-53
2022/08/10 04:44:24;;;;;;;;;;;;;;;;;;2218850;66;1123;-54
2022/08/10 04:46:57;;;;;;;;;;;;;;;;;;2219529;66;1269;-53
2022/08/10 04:49:30;;;;;;;;;;;;;;;;;;2219232;66;1280;-53
2022/08/10 04:52:06;;;;;;;;;;;;;;;;;;2219905;66;1196;-53
2022/08/10 04:54:40;;;;;;;;;;;;;;;;;;2219502;66;1124;-56
2022/08/10 04:57:13;;;;;;;;;;;;;;;;;;2219290;66;1935;-54
2022/08/10 04:59:47;;;;;;;;;;;;;;;;;;2219641;58;1270;-53
2022/08/10 05:02:20;;;;;;;;;;;;;;;;;;2219221;58;1623;-53
2022/08/10 05:04:53;;;;;;;;;;;;;;;;;;2219064;58;1327;-54
2022/08/10 05:07:29;;;;;;;;;;;;;;;;;;2219082;66;1272;-53
2022/08/10 05:10:02;;;;;;;;;;;;;;;;;;2218783;59;1217;-54
2022/08/10 05:12:36;;;;;;;;;;;;;;;;;;2219560;58;1301;-54
2022/08/10 05:15:10;;;;;;;;;;;;;;;;;;2219260;66;1527;-54
2022/08/10 05:17:44;;;;;;;;;;;;;;;;;;2217842;66;1950;-53
2022/08/10 05:20:19;;;;;;;;;;;;;;;;;;2218589;59;1748;-53
2022/08/10 05:22:55;;;;;;;;;;;;;;;;;;2218583;66;1228;-53
2022/08/10 05:25:28;;;;;;;;;;;;;;;;;;2219049;66;1315;-54
2022/08/10 05:28:01;;;;;;;;;;;;;;;;;;2218648;66;1272;-53
2022/08/10 05:30:35;;;;;;;;;;;;;;;;;;2218696;66;1083;-54
2022/08/10 05:33:08;;;;;;;;;;;;;;;;;;2218646;66;1220;-54
2022/08/10 05:35:41;;;;;;;;;;;;;;;;;;2218758;58;1987;-53
2022/08/10 05:38:18;;;;;;;;;;;;;;;;;;2218666;66;1276;-53
2022/08/10 05:40:51;;;;;;;;;;;;;;;;;;2218763;66;1104;-53
2022/08/10 05:43:25;;;;;;;;;;;;;;;;;;2218906;66;1142;-53
2022/08/10 05:45:58;;;;;;;;;;;;;;;;;;2218438;66;1138;-54
2022/08/10 05:48:32;;;;;;;;;;;;;;;;;;2218043;66;1124;-53
2022/08/10 05:51:05;;;;;;;;;;;;;;;;;;2218712;66;1758;-54
2022/08/10 05:53:41;;;;;;;;;;;;;;;;;;2218464;66;1195;-54
2022/08/10 05:56:14;;;;;;;;;;;;;;;;;;2218540;66;1980;-54
2022/08/10 05:58:48;;;;;;;;;;;;;;;;;;2217483;66;1204;-54
2022/08/10 06:01:23;;;;;;;;;;;;;;;;;;2218762;58;1486;-54
2022/08/10 06:03:59;;;;;;;;;;;;;;;;;;2218818;59;1356;-54
2022/08/10 06:06:34;;;;;;;;;;;;;;;;;;2219978;66;1508;-53
2022/08/10 06:09:11;;;;;;;;;;;;;;;;;;2217900;66;1221;-54
2022/08/10 06:11:45;;;;;;;;;;;;;;;;;;2218767;58;1239;-53
2022/08/10 06:17:08;;;;;;;;;;;;;;;;;;2217425;58;1967;-54
2022/08/10 06:19:43;;;;;;;;;;;;;;;;;;2218021;58;1252;-55
2022/08/10 06:22:16;;;;;;;;;;;;;;;;;;2218335;66;1212;-53
2022/08/10 06:24:52;;;;;;;;;;;;;;;;;;2218164;58;1264;-54
2022/08/10 06:27:26;;;;;;;;;;;;;;;;;;2217951;66;1245;-54
2022/08/10 06:30:01;;;;;;;;;;;;;;;;;;2218723;66;1275;-56
2022/08/10 06:32:34;;;;;;;;;;;;;;;;;;2217860;66;1226;-53
2022/08/10 06:35:09;;;;;;;;;;;;;;;;;;2218313;59;1118;-54
2022/08/10 06:37:44;;;;;;;;;;;;;;;;;;2217864;58;1924;-53
2022/08/10 06:40:20;;;;;;;;;;;;;;;;;;2218258;59;1198;-54
2022/08/10 06:42:54;;;;;;;;;;;;;;;;;;2218009;66;1232;-54
2022/08/10 06:45:30;;;;;;;;;;;;;;;;;;2218607;66;1253;-53
2022/08/10 06:48:05;;;;;;;;;;;;;;;;;;2218080;59;1246;-54
2022/08/10 06:50:41;;;;;;;;;;;;;;;;;;2218823;66;1050;-54
2022/08/10 06:53:17;;;;;;;;;;;;;;;;;;2218390;66;1203;-54
2022/08/10 06:55:56;;;;;;;;;;;;;;;;;;2218759;66;1193;-55
2022/08/10 06:58:34;;;;;;;;;;;;;;;;;;2218742;58;1919;-54
2022/08/10 07:01:09;;;;;;;;;;;;;;;;;;2217908;66;1464;-54
2022/08/10 07:03:45;;;;;;;;;;;;;;;;;;2218715;58;1801;-54
2022/08/10 07:06:19;;;;;;;;;;;;;;;;;;2217423;66;1745;-55
2022/08/10 07:08:52;;;;;;;;;;;;;;;;;;2218404;66;1221;-54
2022/08/10 07:11:30;;;;;;;;;;;;;;;;;;2218652;58;1247;-54
2022/08/10 07:14:05;;;;;;;;;;;;;;;;;;2218425;66;1108;-54
2022/08/10 07:16:41;;;;;;;;;;;;;;;;;;2218372;58;1933;-54
2022/08/10 07:19:15;;;;;;;;;;;;;;;;;;2218620;58;1142;-56
2022/08/10 07:21:49;;;;;;;;;;;;;;;;;;2218196;58;1133;-54
2022/08/10 07:24:22;;;;;;;;;;;;;;;;;;2218099;66;1277;-54
2022/08/10 07:26:59;;;;;;;;;;;;;;;;;;2218485;66;1107;-54
2022/08/10 07:29:33;;;;;;;;;;;;;;;;;;2218142;66;1332;-54
2022/08/10 07:32:07;;;;;;;;;;;;;;;;;;2219679;66;1192;-54
2022/08/10 07:34:41;;;;;;;;;;;;;;;;;;2219789;66;1046;-54
2022/08/10 07:37:15;;;;;;;;;;;;;;;;;;2219025;58;1933;-56
2022/08/10 07:39:50;;;;;;;;;;;;;;;;;;2218422;66;1187;-54
2022/08/10 07:42:29;;;;;;;;;;;;;;;;;;2218179;66;1424;-55
2022/08/10 07:45:03;;;;;;;;;;;;;;;;;;2219216;66;1167;-54
2022/08/10 07:47:39;;;;;;;;;;;;;;;;;;2218557;66;1214;-57
2022/08/10 07:50:14;;;;;;;;;;;;;;;;;;2218822;66;1237;-56
2022/08/10 07:52:49;;;;;;;;;;;;;;;;;;2218936;59;1248;-56
2022/08/10 07:55:22;;;;;;;;;;;;;;;;;;2219023;66;1127;-55
2022/08/10 07:57:59;;;;;;;;;;;;;;;;;;2218685;66;1990;-54
2022/08/10 08:00:33;;;;;;;;;;;;;;;;;;2218820;59;1078;-54
2022/08/10 08:03:08;;;;;;;;;;;;;;;;;;2218806;58;1709;-54
2022/08/10 08:05:42;;;;;;;;;;;;;;;;;;2218738;66;1133;-57
2022/08/10 08:08:15;;;;;;;;;;;;;;;;;;2218287;66;1237;-55
2022/08/10 08:10:49;;;;;;;;;;;;;;;;;;2217087;58;1236;-54
2022/08/10 08:13:26;;;;;;;;;;;;;;;;;;2218451;58;1286;-57
2022/08/10 08:16:03;;;;;;;;;;;;;;;;;;2218629;66;1475;-57
2022/08/10 08:18:37;;;;;;;;;;;;;;;;;;2218043;58;1992;-54
2022/08/10 08:21:10;;;;;;;;;;;;;;;;;;2218547;66;1254;-55
2022/08/10 08:23:44;;;;;;;;;;;;;;;;;;2218317;66;1093;-55
2022/08/10 08:26:19;;;;;;;;;;;;;;;;;;2219359;66;1230;-53
2022/08/10 08:28:55;;;;;;;;;;;;;;;;;;2218351;66;1171;-56
2022/08/10 08:31:29;;;;;;;;;;;;;;;;;;2219309;66;1223;-57
2022/08/10 08:34:03;;;;;;;;;;;;;;;;;;2219861;66;1244;-54
2022/08/10 08:36:37;;;;;;;;;;;;;;;;;;2219736;58;1341;-56
2022/08/10 08:39:10;;;;;;;;;;;;;;;;;;2219562;66;1948;-59
2022/08/10 08:41:55;;;;;;;;;;;;;;;;;;2219251;66;1174;-54
2022/08/10 08:44:36;;;;;;;;;;;;;;;;;;2219111;59;1109;-54
2022/08/10 08:47:20;;;;;;;;;;;;;;;;;;2218785;66;1257;-55
2022/08/10 08:50:00;;;;;;;;;;;;;;;;;;2219461;66;1197;-55
2022/08/10 08:52:38;;;;;;;;;;;;;;;;;;2218832;66;1345;-54
2022/08/10 08:55:17;;;;;;;;;;;;;;;;;;2218898;66;1130;-55
2022/08/10 08:57:52;;;;;;;;;;;;;;;;;;2219202;66;1941;-56
2022/08/10 09:00:35;;;;;;;;;;;;;;;;;;2219533;66;1369;-57
2022/08/10 09:03:23;;;;;;;;;;;;;;;;;;2219066;58;1523;-55
2022/08/10 09:06:05;;;;;;;;;;;;;;;;;;2219085;66;1310;-55
2022/08/10 09:08:56;;;;;;;;;;;;;;;;;;2219398;66;1183;-55
2022/08/10 09:11:34;;;;;;;;;;;;;;;;;;2218747;58;1150;-55
2022/08/10 09:14:10;;;;;;;;;;;;;;;;;;2218565;66;1102;-58
2022/08/10 09:16:53;;;;;;;;;;;;;;;;;;2219535;58;1337;-54
2022/08/10 09:19:29;;;;;;;;;;;;;;;;;;2219100;66;1961;-54
2022/08/10 09:22:05;;;;;;;;;;;;;;;;;;2219535;66;1386;-54
2022/08/10 09:24:46;;;;;;;;;;;;;;;;;;2219378;66;1126;-55
2022/08/10 09:27:20;;;;;;;;;;;;;;;;;;2219503;66;1233;-55
2022/08/10 09:29:55;;;;;;;;;;;;;;;;;;2218867;66;1256;-55
2022/08/10 09:32:39;;;;;;;;;;;;;;;;;;2218452;66;1273;-58
2022/08/10 09:35:14;;;;;;;;;;;;;;;;;;2219112;66;1104;-58
2022/08/10 09:37:49;;;;;;;;;;;;;;;;;;2220393;58;1934;-55
2022/08/10 09:40:26;;;;;;;;;;;;;;;;;;2219812;66;1092;-56
2022/08/10 09:43:04;;;;;;;;;;;;;;;;;;2219469;66;1191;-57
2022/08/10 09:45:43;;;;;;;;;;;;;;;;;;2219237;66;1104;-55
2022/08/10 09:48:26;;;;;;;;;;;;;;;;;;2219913;59;1225;-56
2022/08/10 09:51:06;;;;;;;;;;;;;;;;;;2219321;66;1586;-54
2022/08/10 09:53:45;;;;;;;;;;;;;;;;;;2218821;58;1281;-54
2022/08/10 09:56:30;;;;;;;;;;;;;;;;;;2219402;66;1201;-55
2022/08/10 09:59:06;;;;;;;;;;;;;;;;;;2218468;66;1923;-55
2022/08/10 10:01:42;;;;;;;;;;;;;;;;;;2217644;58;1625;-55
2022/08/10 10:04:23;;;;;;;;;;;;;;;;;;2218793;58;1647;-54
2022/08/10 10:06:58;;;;;;;;;;;;;;;;;;2218824;66;1200;-55
2022/08/10 10:09:34;;;;;;;;;;;;;;;;;;2218719;66;1157;-56
2022/08/10 10:12:13;;;;;;;;;;;;;;;;;;2218183;58;1258;-56
2022/08/10 10:17:45;;;;;;;;;;;;;;;;;;2218579;66;1981;-55
2022/08/10 10:20:27;;;;;;;;;;;;;;;;;;2218702;66;1210;-56
2022/08/10 10:23:04;;;;;;;;;;;;;;;;;;2219000;66;1197;-54
2022/08/10 10:25:40;;;;;;;;;;;;;;;;;;2219092;66;1147;-55
2022/08/10 10:28:21;;;;;;;;;;;;;;;;;;2219183;66;1214;-55
2022/08/10 10:30:57;;;;;;;;;;;;;;;;;;2218569;66;1133;-56
2022/08/10 10:33:34;;;;;;;;;;;;;;;;;;2218862;66;1222;-56
2022/08/10 10:36:10;;;;;;;;;;;;;;;;;;2218273;58;1896;-56
2022/08/10 10:38:44;;;;;;;;;;;;;;;;;;2218882;66;1913;-55
2022/08/10 10:41:21;;;;;;;;;;;;;;;;;;2219282;66;1082;-55
2022/08/10 10:44:00;;;;;;;;;;;;;;;;;;2219056;66;1232;-54
2022/08/10 10:46:39;;;;;;;;;;;;;;;;;;2219219;66;1018;-55
2022/08/10 10:49:16;;;;;;;;;;;;;;;;;;2218927;66;1229;-55
2022/08/10 10:51:56;;;;;;;;;;;;;;;;;;2218805;59;1029;-56
2022/08/10 10:54:34;;;;;;;;;;;;;;;;;;2218700;66;1076;-58
2022/08/10 10:57:11;;;;;;;;;;;;;;;;;;2218376;66;1113;-55
2022/08/10 10:59:53;;;;;;;;;;;;;;;;;;2218813;66;1978;-56
2022/08/10 11:02:41;;;;;;;;;;;;;;;;;;2218547;58;1711;-56
2022/08/10 11:05:19;;;;;;;;;;;;;;;;;;2218197;66;2369;-56
2022/08/10 11:07:59;;;;;;;;;;;;;;;;;;2218781;66;1147;-56
2022/08/10 11:10:35;;;;;;;;;;;;;;;;;;2218379;66;1287;-57
2022/08/10 11:13:16;;;;;;;;;;;;;;;;;;2219424;59;1248;-56
2022/08/10 11:15:55;;;;;;;;;;;;;;;;;;2218584;58;1478;-55
2022/08/10 11:18:32;;;;;;;;;;;;;;;;;;2218877;58;1937;-55
2022/08/10 11:21:11;;;;;;;;;;;;;;;;;;2217934;66;1249;-57
2022/08/10 11:23:51;;;;;;;;;;;;;;;;;;2218447;59;1242;-57
2022/08/10 11:26:28;;;;;;;;;;;;;;;;;;2218761;66;1141;-57
2022/08/10 11:29:04;;;;;;;;;;;;;;;;;;2219007;66;1234;-59
2022/08/10 11:31:42;;;;;;;;;;;;;;;;;;2218521;66;1210;-55
2022/08/10 11:34:18;;;;;;;;;;;;;;;;;;2218898;66;1236;-60
2022/08/10 11:36:59;;;;;;;;;;;;;;;;;;2219107;58;1359;-55
2022/08/10 11:39:36;;;;;;;;;;;;;;;;;;2218720;66;1935;-54
2022/08/10 11:42:17;;;;;;;;;;;;;;;;;;2218845;66;1233;-56
2022/08/10 11:44:52;;;;;;;;;;;;;;;;;;2218924;66;1108;-55
2022/08/10 11:47:29;;;;;;;;;;;;;;;;;;2218475;66;1219;-55
2022/08/10 11:50:05;;;;;;;;;;;;;;;;;;2218302;66;1282;-55
2022/08/10 11:52:40;;;;;;;;;;;;;;;;;;2218167;59;1131;-54
2022/08/10 11:55:19;;;;;;;;;;;;;;;;;;2218406;66;1241;-56
2022/08/10 11:57:54;;;;;;;;;;;;;;;;;;2218527;66;1260;-57
2022/08/10 12:00:24;;;;;;;;;;;;;;;;;;2218465;66;1961;-54
2022/08/10 12:02:59;;;;;;;;;;;;;;;;;;2218839;58;1637;-57
2022/08/10 12:05:35;;;;;;;;;;;;;;;;;;2218201;58;1112;-61
2022/08/10 12:08:09;;;;;;;;;;;;;;;;;;2217504;66;1233;-55
2022/08/10 12:10:45;;;;;;;;;;;;;;;;;;2217310;58;1126;-55
2022/08/10 12:13:20;;;;;;;;;;;;;;;;;;2218788;63;1250;-55
2022/08/10 12:15:57;;;;;;;;;;;;;;;;;;2218066;66;1769;-55
2022/08/10 12:18:34;;;;;;;;;;;;;;;;;;2218754;58;1996;-55
2022/08/10 12:21:10;;;;;;;;;;;;;;;;;;2218390;59;1255;-55
2022/08/10 12:23:45;;;;;;;;;;;;;;;;;;2217946;66;1158;-55
2022/08/10 12:26:24;;;;;;;;;;;;;;;;;;2218276;66;1276;-56
2022/08/10 12:29:01;;;;;;;;;;;;;;;;;;2218082;66;1243;-55
2022/08/10 12:31:36;;;;;;;;;;;;;;;;;;2217849;66;1198;-55
2022/08/10 12:34:20;;;;;;;;;;;;;;;;;;2218071;66;1162;-57
2022/08/10 12:36:59;;;;;;;;;;;;;;;;;;2218385;58;1336;-54
2022/08/10 12:39:38;;;;;;;;;;;;;;;;;;2218381;66;1929;-55
2022/08/10 12:42:17;;;;;;;;;;;;;;;;;;2218105;66;1053;-54
2022/08/10 12:44:56;;;;;;;;;;;;;;;;;;2218195;66;1247;-55
2022/08/10 12:47:35;;;;;;;;;;;;;;;;;;2218462;66;1130;-55
2022/08/10 12:50:11;;;;;;;;;;;;;;;;;;2218852;66;1228;-55
2022/08/10 12:52:51;;;;;;;;;;;;;;;;;;2217745;66;1218;-56
2022/08/10 12:55:26;;;;;;;;;;;;;;;;;;2218204;66;1559;-55
2022/08/10 12:58:03;;;;;;;;;;;;;;;;;;2218917;66;1285;-57
2022/08/10 13:00:37;;;;;;;;;;;;;;;;;;2218473;66;2000;-54
2022/08/10 13:03:11;;;;;;;;;;;;;;;;;;2218292;58;1632;-55
2022/08/10 13:05:44;;;;;;;;;;;;;;;;;;2218330;66;1599;-55
2022/08/10 13:11:09;;;;;;;;;;;;;;;;;;2218641;66;1295;-54
2022/08/10 13:13:47;;;;;;;;;;;;;;;;;;2219098;66;1274;-55
2022/08/10 13:16:22;;;;;;;;;;;;;;;;;;2219097;58;1337;-55
2022/08/10 13:18:56;;;;;;;;;;;;;;;;;;2219647;58;1931;-55
2022/08/10 13:21:32;;;;;;;;;;;;;;;;;;2219371;66;1092;-55
2022/08/10 13:24:09;;;;;;;;;;;;;;;;;;2218960;66;1258;-55
2022/08/10 13:26:49;;;;;;;;;;;;;;;;;;2218313;66;1267;-55
2022/08/10 13:29:26;;;;;;;;;;;;;;;;;;2218831;66;1269;-55
2022/08/10 13:32:02;;;;;;;;;;;;;;;;;;2218715;66;1215;-55
2022/08/10 13:34:37;;;;;;;;;;;;;;;;;;2218814;66;1019;-55
2022/08/10 13:37:11;;;;;;;;;;;;;;;;;;2218444;58;1586;-57
2022/08/10 13:39:46;;;;;;;;;;;;;;;;;;2218740;66;1927;-56
2022/08/10 13:42:21;;;;;;;;;;;;;;;;;;2218764;66;1110;-55
2022/08/10 13:44:58;;;;;;;;;;;;;;;;;;2219227;66;1187;-55
2022/08/10 13:47:33;;;;;;;;;;;;;;;;;;2218544;66;1148;-56
2022/08/10 13:50:08;;;;;;;;;;;;;;;;;;2218364;66;1210;-56
2022/08/10 13:52:43;;;;;;;;;;;;;;;;;;2218289;66;1066;-54
2022/08/10 13:55:18;;;;;;;;;;;;;;;;;;2218818;66;1100;-54
2022/08/10 13:57:53;;;;;;;;;;;;;;;;;;2218072;66;1297;-55
2022/08/10 14:00:34;;;;;;;;;;;;;;;;;;2218139;66;1978;-55
2022/08/10 14:03:09;;;;;;;;;;;;;;;;;;2218251;58;1608;-55
2022/08/10 14:05:47;;;;;;;;;;;;;;;;;;2219307;66;1226;-56
2022/08/10 14:08:21;;;;;;;;;;;;;;;;;;2218765;66;1287;-55
2022/08/10 14:10:57;;;;;;;;;;;;;;;;;;2219292;58;1289;-55
2022/08/10 14:13:32;;;;;;;;;;;;;;;;;;2218779;58;1351;-55
2022/08/10 14:16:10;;;;;;;;;;;;;;;;;;2218563;58;1444;-56
2022/08/10 14:18:44;;;;;;;;;;;;;;;;;;2218794;58;1224;-54
2022/08/10 14:21:18;;;;;;;;;;;;;;;;;;2218807;66;1937;-55
2022/08/10 14:23:52;;;;;;;;;;;;;;;;;;2218830;59;1305;-56
2022/08/10 14:26:26;;;;;;;;;;;;;;;;;;2218611;66;1276;-54
2022/08/10 14:29:09;;;;;;;;;;;;;;;;;;2217929;66;1229;-55
2022/08/10 14:31:47;;;;;;;;;;;;;;;;;;2218410;66;1124;-55
2022/08/10 14:34:21;;;;;;;;;;;;;;;;;;2218280;66;1280;-55
2022/08/10 14:36:56;;;;;;;;;;;;;;;;;;2218318;58;1323;-55
2022/08/10 14:39:30;;;;;;;;;;;;;;;;;;2217833;66;1935;-55
2022/08/10 14:42:06;;;;;;;;;;;;;;;;;;2218200;66;1272;-56
2022/08/10 14:44:45;;;;;;;;;;;;;;;;;;2218607;66;1191;-55
2022/08/10 14:47:23;;;;;;;;;;;;;;;;;;2218732;66;1092;-57
2022/08/10 14:49:58;;;;;;;;;;;;;;;;;;2218509;66;1196;-55
2022/08/10 14:52:32;;;;;;;;;;;;;;;;;;2218554;66;1257;-57
2022/08/10 14:55:06;;;;;;;;;;;;;;;;;;2219314;66;1116;-55
2022/08/10 14:57:41;;;;;;;;;;;;;;;;;;2219027;66;1192;-55
2022/08/10 15:00:15;;;;;;;;;;;;;;;;;;2219087;59;1937;-55
2022/08/10 15:02:53;;;;;;;;;;;;;;;;;;2218745;58;1772;-56
2022/08/10 15:05:29;;;;;;;;;;;;;;;;;;2219638;66;1211;-55
2022/08/10 15:08:02;;;;;;;;;;;;;;;;;;2218334;66;1203;-55
2022/08/10 15:10:36;;;;;;;;;;;;;;;;;;2219521;58;1263;-56
2022/08/10 15:13:11;;;;;;;;;;;;;;;;;;2219758;66;1204;-55
2022/08/10 15:15:44;;;;;;;;;;;;;;;;;;2219148;58;1425;-55
2022/08/10 15:18:21;;;;;;;;;;;;;;;;;;2219550;58;1277;-55
2022/08/10 15:20:57;;;;;;;;;;;;;;;;;;2219358;66;1926;-55
2022/08/10 15:23:31;;;;;;;;;;;;;;;;;;2219722;66;1259;-55
2022/08/10 15:26:06;;;;;;;;;;;;;;;;;;2219422;66;1270;-55
2022/08/10 15:28:44;;;;;;;;;;;;;;;;;;2219555;66;1309;-55
2022/08/10 15:31:19;;;;;;;;;;;;;;;;;;2219101;66;1789;-55
2022/08/10 15:39:38;;;;;;;;;;;;;;;;;;2219056;66;1999;-55
2022/08/10 15:42:18;;;;;;;;;;;;;;;;;;2219552;59;1280;-56
2022/08/10 15:44:53;;;;;;;;;;;;;;;;;;2219579;66;1160;-56
2022/08/10 15:47:28;;;;;;;;;;;;;;;;;;2219959;66;1266;-57
2022/08/10 15:50:06;;;;;;;;;;;;;;;;;;2219606;66;1178;-55
2022/08/10 15:52:41;;;;;;;;;;;;;;;;;;2219277;58;1210;-57
2022/08/10 15:55:16;;;;;;;;;;;;;;;;;;2218648;66;1852;-56
2022/08/10 15:57:52;;;;;;;;;;;;;;;;;;2219555;66;1233;-55
2022/08/10 16:00:25;;;;;;;;;;;;;;;;;;2219333;66;1905;-55
2022/08/10 16:03:00;;;;;;;;;;;;;;;;;;2219712;58;1630;-57
2022/08/10 16:05:42;;;;;;;;;;;;;;;;;;2219002;66;1167;-56
2022/08/10 16:08:17;;;;;;;;;;;;;;;;;;2218654;66;1260;-58
2022/08/10 16:10:53;;;;;;;;;;;;;;;;;;2218371;58;2054;-57
2022/08/10 16:13:32;;;;;;;;;;;;;;;;;;2218560;66;1210;-55
2022/08/10 16:16:07;;;;;;;;;;;;;;;;;;2218514;58;1380;-55
2022/08/10 16:18:41;;;;;;;;;;;;;;;;;;2219448;58;1275;-55
2022/08/10 16:21:18;;;;;;;;;;;;;;;;;;2219064;66;1976;-55
2022/08/10 16:23:56;;;;;;;;;;;;;;;;;;2219599;66;1135;-55
2022/08/10 16:26:31;;;;;;;;;;;;;;;;;;2220468;66;1049;-55
2022/08/10 16:29:06;;;;;;;;;;;;;;;;;;2220148;66;1265;-55
2022/08/10 16:31:44;;;;;;;;;;;;;;;;;;2219478;66;1452;-56
2022/08/10 16:34:17;;;;;;;;;;;;;;;;;;2220004;66;1212;-55
2022/08/10 16:36:55;;;;;;;;;;;;;;;;;;2220182;58;1263;-55
2022/08/10 16:39:30;;;;;;;;;;;;;;;;;;2219417;66;1198;-55
2022/08/10 16:42:05;;;;;;;;;;;;;;;;;;2218641;59;1931;-55
2022/08/10 16:44:40;;;;;;;;;;;;;;;;;;2219731;66;1152;-54
2022/08/10 16:47:14;;;;;;;;;;;;;;;;;;2219774;66;1166;-55
2022/08/10 16:49:48;;;;;;;;;;;;;;;;;;2219331;66;1775;-55
2022/08/10 16:52:28;;;;;;;;;;;;;;;;;;2220042;66;1471;-55
2022/08/10 16:55:04;;;;;;;;;;;;;;;;;;2220192;66;1261;-54
2022/08/10 16:57:39;;;;;;;;;;;;;;;;;;2220720;66;1035;-54
2022/08/10 17:00:14;;;;;;;;;;;;;;;;;;2220475;66;1976;-55
2022/08/10 17:02:48;;;;;;;;;;;;;;;;;;2219510;58;1848;-54
2022/08/10 17:05:24;;;;;;;;;;;;;;;;;;2220265;66;1273;-55
2022/08/10 17:08:04;;;;;;;;;;;;;;;;;;2220345;66;1604;-54
2022/08/10 17:10:39;;;;;;;;;;;;;;;;;;2220615;66;1307;-54
2022/08/10 17:13:13;;;;;;;;;;;;;;;;;;2220443;66;1182;-54
2022/08/10 17:15:50;;;;;;;;;;;;;;;;;;2220314;58;1283;-55
2022/08/10 17:18:29;;;;;;;;;;;;;;;;;;2219695;59;1479;-57
2022/08/10 17:21:06;;;;;;;;;;;;;;;;;;2218747;66;1981;-62
2022/08/10 17:23:45;;;;;;;;;;;;;;;;;;2219540;59;1088;-55
2022/08/10 17:26:21;;;;;;;;;;;;;;;;;;2219953;66;1241;-54
2022/08/10 17:28:56;;;;;;;;;;;;;;;;;;2219564;66;1171;-54
2022/08/10 17:31:32;;;;;;;;;;;;;;;;;;2218782;66;1112;-54
2022/08/10 17:34:12;;;;;;;;;;;;;;;;;;2219092;66;1197;-54
2022/08/10 17:36:48;;;;;;;;;;;;;;;;;;2218677;58;1348;-54
2022/08/10 17:39:26;;;;;;;;;;;;;;;;;;2219557;66;1304;-55
2022/08/10 17:42:00;;;;;;;;;;;;;;;;;;2219240;66;1927;-55
2022/08/10 17:44:36;;;;;;;;;;;;;;;;;;2219093;66;1193;-54
2022/08/10 17:47:12;;;;;;;;;;;;;;;;;;2218943;66;1253;-54
2022/08/10 17:49:46;;;;;;;;;;;;;;;;;;2219171;66;1211;-54
2022/08/10 17:52:21;;;;;;;;;;;;;;;;;;2219002;66;1221;-54
2022/08/10 17:54:58;;;;;;;;;;;;;;;;;;2219206;66;1300;-54
2022/08/10 17:57:34;;;;;;;;;;;;;;;;;;2219124;66;1104;-54
2022/08/10 18:00:12;;;;;;;;;;;;;;;;;;2219169;66;1257;-54
2022/08/10 18:02:46;;;;;;;;;;;;;;;;;;2218821;58;1996;-54
2022/08/10 18:05:20;;;;;;;;;;;;;;;;;;2219416;66;1130;-53
2022/08/10 18:07:54;;;;;;;;;;;;;;;;;;2218864;58;1584;-55
2022/08/10 18:10:31;;;;;;;;;;;;;;;;;;2218841;66;1233;-58
2022/08/10 18:13:05;;;;;;;;;;;;;;;;;;2219390;58;1327;-54
2022/08/10 18:15:39;;;;;;;;;;;;;;;;;;2218690;58;1448;-57
2022/08/10 18:18:13;;;;;;;;;;;;;;;;;;2219051;58;1199;-55